Time;durP1;ratioP1;P1;durP2;ratioP2;P2;SDS_P1;SDS_P2;PMS_P1;PMS_P2;Temp;Humidity;BMP_temperature;BMP_pressure;BME280_temperature;BME280_humidity;BME280_pressure;Samples;Min_cycle;Max_cycle;Signal;HPM_P1;HPM_P2
2022/08/10 00:01:02;;;;;;;0.00;0.00;;;;;;;17.69;73.69;102597.31;4961260;28;20043;-71
2022/08/10 00:03:27;;;;;;;0.00;0.00;;;;;;;17.90;74.17;102634.59;4961970;28;20034;-71
2022/08/10 00:05:55;;;;;;;0.00;0.00;;;;;;;17.89;74.07;102629.28;4960020;28;20111;-70
2022/08/10 00:08:21;;;;;;;0.00;0.00;;;;;;;17.87;73.86;102632.16;4959921;28;20042;-70
2022/08/10 00:10:46;;;;;;;0.00;0.00;;;;;;;17.76;74.92;102632.13;4962646;28;20035;-70
2022/08/10 00:13:12;;;;;;;0.00;0.00;;;;;;;17.72;75.09;102631.53;4960349;28;20059;-71
2022/08/10 00:15:37;;;;;;;0.00;0.00;;;;;;;17.75;74.67;102631.25;4960025;28;20031;-70
2022/08/10 00:18:02;;;;;;;0.00;0.00;;;;;;;17.76;74.41;102627.53;4959126;28;20030;-71
2022/08/10 00:20:28;;;;;;;0.00;0.00;;;;;;;17.70;74.76;102630.78;4957181;28;20023;-71
2022/08/10 00:22:53;;;;;;;0.00;0.00;;;;;;;17.66;74.93;102624.72;4958990;28;20058;-71
2022/08/10 00:25:18;;;;;;;0.00;0.00;;;;;;;17.46;76.30;102620.88;4960449;28;20034;-71
2022/08/10 00:27:44;;;;;;;0.00;0.00;;;;;;;17.29;77.42;102618.63;4957806;28;20298;-71
2022/08/10 00:30:10;;;;;;;0.00;0.00;;;;;;;17.23;77.17;102622.69;4961954;28;20038;-71
2022/08/10 00:32:35;;;;;;;0.00;0.00;;;;;;;17.22;77.34;102620.97;4956191;28;20043;-67
2022/08/10 00:35:00;;;;;;;0.00;0.00;;;;;;;17.07;78.83;102618.47;4956941;28;20077;-67
2022/08/10 00:37:26;;;;;;;0.00;0.00;;;;;;;17.06;78.32;102622.16;4957474;28;20109;-67
2022/08/10 00:39:51;;;;;;;0.00;0.00;;;;;;;17.00;78.78;102625.34;4960024;28;20423;-67
2022/08/10 00:42:16;;;;;;;0.00;0.00;;;;;;;16.88;79.25;102618.97;4954541;28;20055;-67
2022/08/10 00:44:44;;;;;;;0.00;0.00;;;;;;;16.78;79.72;102623.38;4961422;28;20070;-66
2022/08/10 00:47:11;;;;;;;0.00;0.00;;;;;;;16.71;79.70;102616.66;4958324;28;20146;-66
2022/08/10 00:49:37;;;;;;;0.00;0.00;;;;;;;16.49;79.67;102585.75;4958804;28;20034;-67
2022/08/10 00:52:03;;;;;;;0.00;0.00;;;;;;;16.54;80.32;102607.13;4957227;28;20086;-71
2022/08/10 00:54:29;;;;;;;0.00;0.00;;;;;;;16.53;80.33;102610.81;4958617;28;20413;-71
2022/08/10 00:56:55;;;;;;;0.00;0.00;;;;;;;16.43;80.92;102603.38;4960021;28;20551;-71
2022/08/10 00:59:20;;;;;;;0.00;0.00;;;;;;;16.36;80.65;102587.69;4956927;28;20077;-71
2022/08/10 01:01:46;;;;;;;0.00;0.00;;;;;;;16.36;81.80;102612.09;4965385;28;20497;-71
2022/08/10 01:04:11;;;;;;;0.00;0.00;;;;;;;16.33;81.71;102611.34;4961528;28;20105;-70
2022/08/10 01:07:14;;;;;;;0.00;0.00;;;;;;;16.24;82.41;102608.44;4956727;28;20027;-71
2022/08/10 01:09:46;;;;;;;0.00;0.00;;;;;;;16.21;81.88;102617.66;4963268;28;20082;-71
2022/08/10 01:12:15;;;;;;;0.00;0.00;;;;;;;16.20;81.87;102613.19;4961858;28;20513;-70
2022/08/10 01:14:52;;;;;;;0.00;0.00;;;;;;;16.11;82.26;102613.91;4963293;28;20050;-70
2022/08/10 01:17:20;;;;;;;0.00;0.00;;;;;;;16.02;82.79;102612.75;4971963;28;20423;-70
2022/08/10 01:19:52;;;;;;;0.00;0.00;;;;;;;16.04;83.06;102610.75;4962792;28;20031;-71
2022/08/10 01:22:52;;;;;;;0.00;0.00;;;;;;;16.03;83.72;102611.72;4957203;28;20359;-71
2022/08/10 01:25:44;;;;;;;0.00;0.00;;;;;;;16.04;83.89;102606.22;4957504;28;20022;-70
2022/08/10 01:28:33;;;;;;;0.00;0.00;;;;;;;16.11;83.29;102603.91;4959224;28;20109;-70
2022/08/10 01:31:00;;;;;;;0.00;0.00;;;;;;;16.10;83.03;102593.19;4955766;28;21622;-70
2022/08/10 01:33:31;;;;;;;0.00;0.00;;;;;;;16.17;82.86;102597.16;4956401;28;20152;-70
2022/08/10 01:36:30;;;;;;;0.00;0.00;;;;;;;16.22;82.71;102602.28;4946686;28;20031;-70
2022/08/10 01:38:57;;;;;;;0.00;0.00;;;;;;;16.17;83.34;102589.91;4959502;28;20126;-70
2022/08/10 01:41:26;;;;;;;0.00;0.00;;;;;;;16.01;82.82;102575.78;4961032;28;20030;-71
2022/08/10 01:44:02;;;;;;;0.00;0.00;;;;;;;16.17;83.37;102592.63;4958597;28;20038;-71
2022/08/10 01:46:28;;;;;;;0.00;0.00;;;;;;;16.06;83.64;102595.25;4977514;28;20382;-71
2022/08/10 01:48:56;;;;;;;0.00;0.00;;;;;;;16.07;83.95;102601.56;4961717;28;20038;-70
2022/08/10 01:51:35;;;;;;;0.00;0.00;;;;;;;15.88;83.87;102587.50;4963603;28;20103;-70
2022/08/10 01:54:04;;;;;;;0.00;0.00;;;;;;;15.88;84.33;102598.34;4961941;28;20070;-71
2022/08/10 01:56:32;;;;;;;0.00;0.00;;;;;;;15.78;84.32;102597.22;4964278;28;20027;-71
2022/08/10 01:59:00;;;;;;;0.00;0.00;;;;;;;15.68;84.73;102590.75;4961258;28;20034;-71
2022/08/10 02:01:29;;;;;;;0.00;0.00;;;;;;;15.61;85.58;102590.34;4959929;28;20058;-71
2022/08/10 02:03:57;;;;;;;0.00;0.00;;;;;;;15.62;85.95;102593.91;4970989;28;20035;-71
2022/08/10 02:06:25;;;;;;;0.00;0.00;;;;;;;15.61;85.87;102598.47;4943926;28;20053;-71
2022/08/10 02:08:52;;;;;;;0.00;0.00;;;;;;;15.62;86.16;102599.31;4961427;28;20027;-71
2022/08/10 02:11:18;;;;;;;0.00;0.00;;;;;;;15.61;86.06;102582.22;4961265;28;20038;-71
2022/08/10 02:13:44;;;;;;;0.00;0.00;;;;;;;15.78;85.52;102593.66;4962782;28;20054;-71
2022/08/10 02:16:10;;;;;;;0.00;0.00;;;;;;;15.85;85.35;102594.97;4963097;28;20109;-72
2022/08/10 02:18:36;;;;;;;0.00;0.00;;;;;;;15.80;85.25;102587.16;4970274;28;20133;-71
2022/08/10 02:21:06;;;;;;;0.00;0.00;;;;;;;15.85;85.34;102605.81;4960419;28;20077;-71
2022/08/10 02:23:33;;;;;;;0.00;0.00;;;;;;;15.88;84.98;102595.63;4956943;28;20045;-71
2022/08/10 02:26:00;;;;;;;0.00;0.00;;;;;;;15.83;85.40;102584.22;4959618;28;20033;-71
2022/08/10 02:28:28;;;;;;;0.00;0.00;;;;;;;15.88;85.09;102589.38;4961608;28;20043;-71
2022/08/10 02:30:56;;;;;;;0.00;0.00;;;;;;;15.75;85.05;102565.84;4958720;28;20596;-71
2022/08/10 02:33:22;;;;;;;0.00;0.00;;;;;;;15.83;85.65;102594.22;4954451;28;20034;-71
2022/08/10 02:35:50;;;;;;;0.00;0.00;;;;;;;15.79;85.61;102588.13;4958397;28;20504;-70
2022/08/10 02:38:19;;;;;;;0.00;0.00;;;;;;;15.77;85.67;102598.19;4952598;28;20686;-70
2022/08/10 02:40:47;;;;;;;0.03;0.03;;;;;;;15.75;85.72;102592.91;4970696;28;20022;-70
2022/08/10 02:43:29;;;;;;;0.00;0.00;;;;;;;15.67;85.89;102570.94;4958120;28;20147;-71
2022/08/10 02:46:06;;;;;;;0.00;0.00;;;;;;;15.61;85.26;102557.84;4960388;28;20491;-71
2022/08/10 02:48:41;;;;;;;0.00;0.00;;;;;;;15.79;85.32;102588.13;4955365;28;20034;-71
2022/08/10 02:51:19;;;;;;;0.00;0.00;;;;;;;15.72;85.19;102595.00;4957155;28;20035;-71
2022/08/10 02:53:47;;;;;;;0.00;0.00;;;;;;;15.62;86.06;102589.38;4956861;28;20085;-71
2022/08/10 02:56:21;;;;;;;0.00;0.00;;;;;;;15.52;86.02;102586.44;4964879;28;20039;-71
2022/08/10 02:59:06;;;;;;;;;;;;;;;15.39;87.45;102583.72;4960945;28;20015;-71
2022/08/10 03:01:33;;;;;;;0.00;0.00;;;;;;;15.38;86.77;102576.59;4959148;28;19977;-71
2022/08/10 03:04:04;;;;;;;0.00;0.00;;;;;;;15.33;86.82;102584.19;4957801;28;20073;-71
2022/08/10 03:06:34;;;;;;;0.00;0.00;;;;;;;15.28;86.30;102589.91;4961794;28;20174;-71
2022/08/10 03:09:00;;;;;;;0.00;0.00;;;;;;;15.23;87.57;102581.22;4960307;28;20035;-71
2022/08/10 03:11:27;;;;;;;0.00;0.00;;;;;;;15.19;88.13;102577.03;4958359;28;20117;-71
2022/08/10 03:13:54;;;;;;;0.00;0.00;;;;;;;15.08;88.19;102558.84;4961997;28;20030;-71
2022/08/10 03:16:21;;;;;;;0.00;0.00;;;;;;;15.23;87.80;102580.38;4959749;28;20070;-71
2022/08/10 03:18:46;;;;;;;0.00;0.00;;;;;;;15.11;87.39;102546.94;4977999;28;20132;-72
2022/08/10 03:21:14;;;;;;;0.00;0.00;;;;;;;15.23;88.43;102570.41;4959313;28;20034;-72
2022/08/10 03:23:40;;;;;;;0.00;0.00;;;;;;;15.25;88.22;102573.88;4953163;28;20113;-72
2022/08/10 03:26:06;;;;;;;0.00;0.00;;;;;;;15.22;89.01;102571.41;4975296;28;20030;-66
2022/08/10 03:28:33;;;;;;;0.00;0.00;;;;;;;15.17;89.13;102556.47;4955729;28;20064;-66
2022/08/10 03:30:59;;;;;;;0.00;0.00;;;;;;;15.13;89.71;102553.97;4959839;28;20042;-67
2022/08/10 03:33:26;;;;;;;0.00;0.00;;;;;;;15.34;89.11;102571.50;4955074;28;20085;-67
2022/08/10 03:35:52;;;;;;;0.00;0.00;;;;;;;15.35;88.99;102566.00;4954320;28;20035;-66
2022/08/10 03:38:17;;;;;;;0.00;0.00;;;;;;;15.37;88.99;102561.31;4957922;28;20041;-71
2022/08/10 03:40:44;;;;;;;0.00;0.00;;;;;;;15.37;88.85;102571.28;4959404;28;20034;-72
2022/08/10 03:43:10;;;;;;;0.00;0.00;;;;;;;15.37;89.03;102571.28;4953400;28;20685;-71
2022/08/10 03:45:36;;;;;;;0.00;0.00;;;;;;;15.37;88.95;102568.59;4963377;28;20039;-71
2022/08/10 03:48:03;;;;;;;0.00;0.00;;;;;;;15.30;89.43;102571.72;4946309;28;20070;-71
2022/08/10 03:50:29;;;;;;;0.00;0.00;;;;;;;15.29;89.05;102570.00;4954763;28;20366;-71
2022/08/10 03:52:55;;;;;;;0.00;0.00;;;;;;;15.27;89.04;102571.09;4957649;28;20034;-72
2022/08/10 03:55:21;;;;;;;0.00;0.00;;;;;;;15.24;88.72;102560.47;4956393;28;20182;-72
2022/08/10 03:57:47;;;;;;;0.00;0.00;;;;;;;15.32;88.74;102566.22;4959264;28;20031;-71
2022/08/10 04:00:17;;;;;;;0.00;0.00;;;;;;;15.23;88.77;102570.41;4956970;28;20026;-71
2022/08/10 04:02:46;;;;;;;0.00;0.00;;;;;;;15.15;88.90;102572.81;4957631;28;20031;-71
2022/08/10 04:05:15;;;;;;;0.00;0.00;;;;;;;14.91;89.39;102534.81;4958442;28;20034;-67
2022/08/10 04:07:42;;;;;;;0.00;0.00;;;;;;;15.04;90.07;102561.88;4957843;28;20275;-67
2022/08/10 04:10:08;;;;;;;0.00;0.00;;;;;;;15.07;89.88;102556.25;4955063;28;20170;-67
2022/08/10 04:12:33;;;;;;;0.00;0.00;;;;;;;15.02;90.23;102566.50;4952376;28;21485;-67
2022/08/10 04:14:58;;;;;;;0.00;0.00;;;;;;;14.97;90.26;102567.69;4958984;28;20088;-67
2022/08/10 04:17:24;;;;;;;0.00;0.00;;;;;;;14.95;90.18;102576.91;4960526;28;20035;-67
2022/08/10 04:19:51;;;;;;;0.00;0.00;;;;;;;14.91;90.38;102570.84;4961116;28;20035;-72
2022/08/10 04:22:20;;;;;;;0.00;0.00;;;;;;;14.83;90.42;102567.78;4957810;28;20034;-72
2022/08/10 04:24:47;;;;;;;0.00;0.00;;;;;;;14.85;90.41;102569.41;4956606;28;20057;-71
2022/08/10 04:27:13;;;;;;;0.00;0.00;;;;;;;14.73;90.92;102555.84;4952716;28;20478;-72
2022/08/10 04:29:38;;;;;;;0.00;0.00;;;;;;;14.74;90.88;102566.59;4957449;28;20031;-72
2022/08/10 04:32:05;;;;;;;0.00;0.00;;;;;;;14.73;90.97;102574.78;4959669;28;20039;-72
2022/08/10 04:34:31;;;;;;;0.00;0.00;;;;;;;14.59;91.21;102543.25;4957148;28;20126;-72
2022/08/10 04:37:03;;;;;;;0.10;0.10;;;;;;;14.79;90.61;102560.84;4953596;28;20040;-72
2022/08/10 04:39:28;;;;;;;0.00;0.00;;;;;;;14.76;91.25;102556.53;4952260;28;20121;-72
2022/08/10 04:41:54;;;;;;;0.00;0.00;;;;;;;14.73;91.69;102558.56;4961897;28;20026;-72
2022/08/10 04:44:19;;;;;;;0.00;0.00;;;;;;;14.73;92.24;102555.84;4963841;28;20096;-72
2022/08/10 04:46:45;;;;;;;0.00;0.00;;;;;;;14.79;92.44;102561.75;4965934;28;20038;-72
2022/08/10 04:49:10;;;;;;;0.00;0.00;;;;;;;14.75;92.66;102562.03;4966148;28;20441;-72
2022/08/10 04:51:35;;;;;;;0.00;0.00;;;;;;;14.83;92.95;102573.19;4961665;28;20244;-72
2022/08/10 04:54:01;;;;;;;0.00;0.00;;;;;;;14.88;92.92;102560.22;4961928;28;20479;-72
2022/08/10 04:56:26;;;;;;;0.00;0.00;;;;;;;14.94;92.94;102567.03;4959906;28;20030;-73
2022/08/10 04:58:51;;;;;;;0.00;0.00;;;;;;;14.80;92.63;102530.16;4959790;28;20088;-76
2022/08/10 05:01:16;;;;;;;0.00;0.00;;;;;;;15.03;92.47;102560.13;4956394;28;20042;-73
2022/08/10 05:03:42;;;;;;;0.00;0.00;;;;;;;15.04;92.57;102559.16;4958711;28;20078;-70
2022/08/10 05:06:07;;;;;;;0.00;0.00;;;;;;;15.02;93.20;102561.97;4957105;28;20062;-73
2022/08/10 05:08:32;;;;;;;0.00;0.00;;;;;;;15.09;92.91;102563.28;4957076;28;20113;-72
2022/08/10 05:10:58;;;;;;;0.00;0.00;;;;;;;15.15;92.61;102570.09;4961546;28;20175;-70
2022/08/10 05:13:23;;;;;;;0.00;0.00;;;;;;;15.20;92.64;102567.06;4953791;28;20023;-72
2022/08/10 05:15:50;;;;;;;0.00;0.00;;;;;;;15.29;92.46;102563.72;4964721;28;20039;-72
2022/08/10 05:18:16;;;;;;;0.00;0.00;;;;;;;15.36;92.16;102564.16;4964847;28;20038;-72
2022/08/10 05:20:41;;;;;;;0.00;0.00;;;;;;;15.42;91.95;102569.13;4966513;28;20051;-72
2022/08/10 05:23:07;;;;;;;0.00;0.00;;;;;;;15.42;92.01;102567.28;4966281;28;20125;-72
2022/08/10 05:25:32;;;;;;;0.00;0.00;;;;;;;15.37;91.67;102541.53;4969650;28;20034;-72
2022/08/10 05:27:57;;;;;;;0.00;0.00;;;;;;;15.62;91.59;102575.84;4968611;28;20141;-72
2022/08/10 05:30:22;;;;;;;0.00;0.00;;;;;;;15.70;91.43;102577.97;4967274;28;20114;-72
2022/08/10 05:32:48;;;;;;;0.00;0.00;;;;;;;15.79;91.06;102576.44;4966848;28;20034;-72
2022/08/10 05:35:14;;;;;;;0.00;0.00;;;;;;;15.60;90.82;102542.59;4963144;28;20033;-72
2022/08/10 05:37:40;;;;;;;0.00;0.00;;;;;;;15.92;91.05;102577.31;4963354;28;20066;-72
2022/08/10 05:40:07;;;;;;;0.00;0.00;;;;;;;16.03;90.58;102580.09;4959232;28;20299;-72
2022/08/10 05:42:32;;;;;;;0.00;0.00;;;;;;;16.12;90.37;102577.69;4961724;28;20074;-72
2022/08/10 05:44:58;;;;;;;0.00;0.00;;;;;;;16.21;90.10;102578.84;4965186;28;20046;-71
2022/08/10 05:47:23;;;;;;;0.00;0.00;;;;;;;16.30;90.48;102579.03;4963345;28;20065;-72
2022/08/10 05:49:49;;;;;;;0.00;0.00;;;;;;;16.40;89.71;102581.91;4961333;28;20011;-73
2022/08/10 05:52:16;;;;;;;0.00;0.00;;;;;;;16.51;89.06;102591.09;4960624;28;20070;-72
2022/08/10 05:54:42;;;;;;;0.00;0.00;;;;;;;16.64;88.60;102591.88;4961801;28;20090;-72
2022/08/10 05:57:08;;;;;;;0.00;0.00;;;;;;;16.69;88.90;102586.97;4962620;28;20371;-73
2022/08/10 05:59:34;;;;;;;0.00;0.00;;;;;;;16.79;88.23;102590.72;4965104;28;20031;-72
2022/08/10 06:02:03;;;;;;;0.00;0.00;;;;;;;16.97;87.80;102579.44;4960460;28;20399;-72
2022/08/10 06:04:30;;;;;;;0.00;0.00;;;;;;;17.13;87.67;102589.09;4963163;28;20026;-71
2022/08/10 06:06:57;;;;;;;0.00;0.00;;;;;;;17.28;86.88;102584.31;4960107;28;20034;-74
2022/08/10 06:09:23;;;;;;;0.00;0.00;;;;;;;17.40;86.09;102577.94;4963351;28;20426;-70
2022/08/10 06:11:50;;;;;;;0.00;0.00;;;;;;;17.51;85.04;102569.78;4966612;28;20787;-73
2022/08/10 06:17:02;;;;;;;0.00;0.00;;;;;;;17.71;85.15;102578.19;4961279;28;20045;-72
2022/08/10 06:19:28;;;;;;;0.00;0.00;;;;;;;17.65;83.97;102557.78;4961583;28;20077;-72
2022/08/10 06:21:56;;;;;;;0.00;0.00;;;;;;;17.91;84.12;102581.97;4956753;28;20043;-72
2022/08/10 06:24:24;;;;;;;0.00;0.00;;;;;;;18.01;83.11;102582.09;4965091;28;20162;-71
2022/08/10 06:26:49;;;;;;;0.00;0.00;;;;;;;18.09;83.63;102576.91;4965454;28;20026;-71
2022/08/10 06:29:15;;;;;;;0.00;0.00;;;;;;;18.25;82.67;102581.09;4958791;28;20152;-72
2022/08/10 06:31:48;;;;;;;0.00;0.00;;;;;;;18.36;82.06;102585.63;4962111;28;20049;-71
2022/08/10 06:34:14;;;;;;;0.00;0.00;;;;;;;18.47;81.54;102582.00;4965441;28;20034;-71
2022/08/10 06:36:41;;;;;;;0.00;0.00;;;;;;;18.53;80.04;102581.50;4959456;28;20069;-72
2022/08/10 06:39:06;;;;;;;0.00;0.00;;;;;;;18.59;80.08;102576.41;4962169;28;20030;-72
2022/08/10 06:41:34;;;;;;;0.00;0.00;;;;;;;18.67;79.81;102580.31;4965482;28;20025;-71
2022/08/10 06:44:02;;;;;;;0.00;0.00;;;;;;;18.79;79.82;102581.13;4964516;28;20035;-72
2022/08/10 06:46:29;;;;;;;0.00;0.00;;;;;;;18.98;79.66;102575.84;4967687;28;20302;-72
2022/08/10 06:48:59;;;;;;;0.00;0.00;;;;;;;19.14;79.24;102580.84;4956469;28;20031;-71
2022/08/10 06:51:35;;;;;;;0.00;0.00;;;;;;;19.29;77.84;102580.47;4961031;28;20073;-72
2022/08/10 06:54:04;;;;;;;0.00;0.00;;;;;;;19.38;77.85;102581.53;4963735;28;20030;-71
2022/08/10 06:56:33;;;;;;;0.00;0.00;;;;;;;19.55;76.60;102580.03;4962936;28;20031;-71
2022/08/10 06:59:26;;;;;;;0.00;0.00;;;;;;;19.64;76.44;102577.34;4958247;28;20372;-71
2022/08/10 07:01:56;;;;;;;0.00;0.00;;;;;;;19.76;76.43;102578.09;4963790;28;20631;-71
2022/08/10 07:04:32;;;;;;;0.00;0.00;;;;;;;19.91;75.09;102583.22;4964409;28;20400;-71
2022/08/10 07:07:00;;;;;;;0.00;0.00;;;;;;;19.98;74.40;102581.66;4960440;28;20165;-71
2022/08/10 07:09:25;;;;;;;0.00;0.00;;;;;;;20.16;74.56;102586.44;4959803;28;20030;-71
2022/08/10 07:11:51;;;;;;;0.00;0.00;;;;;;;20.36;72.96;102595.50;4962731;28;20482;-71
2022/08/10 07:14:17;;;;;;;0.00;0.00;;;;;;;20.37;71.49;102597.25;4961264;28;20026;-70
2022/08/10 07:16:44;;;;;;;0.00;0.00;;;;;;;20.50;70.58;102600.53;4965813;28;20479;-70
2022/08/10 07:19:10;;;;;;;0.00;0.00;;;;;;;20.56;69.27;102598.25;4962104;28;20393;-71
2022/08/10 07:21:41;;;;;;;0.00;0.00;;;;;;;20.66;69.89;102597.25;4965080;28;20035;-71
2022/08/10 07:24:09;;;;;;;0.00;0.00;;;;;;;20.68;68.66;102603.41;4961689;28;20438;-69
2022/08/10 07:26:37;;;;;;;0.00;0.00;;;;;;;20.82;69.06;102599.44;4961546;28;20033;-69
2022/08/10 07:29:03;;;;;;;0.00;0.00;;;;;;;20.93;69.02;102592.94;4965167;28;20069;-68
2022/08/10 07:31:29;;;;;;;0.00;0.00;;;;;;;21.03;67.94;102594.81;4963012;28;20519;-68
2022/08/10 07:33:55;;;;;;;0.00;0.00;;;;;;;21.17;67.94;102588.03;4960275;28;20046;-68
2022/08/10 07:36:22;;;;;;;0.00;0.00;;;;;;;21.39;68.26;102587.66;4960130;28;20541;-68
2022/08/10 07:38:50;;;;;;;0.00;0.00;;;;;;;21.53;67.39;102586.34;4964071;28;20030;-68
2022/08/10 07:41:15;;;;;;;0.00;0.00;;;;;;;21.55;66.32;102559.72;4961569;28;20031;-68
2022/08/10 07:43:42;;;;;;;0.00;0.00;;;;;;;21.70;65.85;102575.63;4963561;28;20034;-67
2022/08/10 07:46:10;;;;;;;0.00;0.00;;;;;;;21.73;65.41;102589.84;4966619;28;20026;-67
2022/08/10 07:48:41;;;;;;;0.00;0.00;;;;;;;21.83;65.51;102595.28;4965611;28;20026;-67
2022/08/10 07:51:08;;;;;;;0.00;0.00;;;;;;;21.83;66.11;102575.28;4962192;28;20525;-67
2022/08/10 07:53:38;;;;;;;0.00;0.00;;;;;;;22.06;65.21;102597.59;4963146;28;20125;-67
2022/08/10 07:56:05;;;;;;;0.00;0.00;;;;;;;22.20;64.66;102589.88;4962664;28;20497;-68
2022/08/10 07:58:35;;;;;;;0.00;0.00;;;;;;;22.33;62.86;102591.22;4956808;28;20047;-68
2022/08/10 08:01:01;;;;;;;0.00;0.00;;;;;;;22.35;63.25;102571.06;4960148;28;20034;-68
2022/08/10 08:03:28;;;;;;;0.00;0.00;;;;;;;22.50;61.47;102596.91;4962076;28;20089;-68
2022/08/10 08:05:55;;;;;;;0.00;0.00;;;;;;;22.57;62.33;102600.72;4962135;28;20490;-67
2022/08/10 08:08:21;;;;;;;0.00;0.00;;;;;;;22.61;62.10;102587.59;4977156;28;20402;-68
2022/08/10 08:10:47;;;;;;;0.00;0.00;;;;;;;22.74;61.42;102584.47;4967955;28;20362;-68
2022/08/10 08:13:13;;;;;;;0.00;0.00;;;;;;;22.95;61.04;102592.31;4962851;28;20063;-68
2022/08/10 08:15:39;;;;;;;0.00;0.00;;;;;;;22.99;61.19;102588.25;4963462;28;20106;-69
2022/08/10 08:18:06;;;;;;;0.00;0.00;;;;;;;23.09;59.52;102590.88;4962878;28;20475;-67
2022/08/10 08:20:31;;;;;;;0.00;0.00;;;;;;;23.13;61.75;102592.28;4961230;28;20042;-67
2022/08/10 08:22:57;;;;;;;0.00;0.00;;;;;;;23.01;60.90;102585.34;4958856;28;20398;-68
2022/08/10 08:25:23;;;;;;;0.00;0.00;;;;;;;23.13;60.29;102592.28;4957045;28;20070;-67
2022/08/10 08:27:52;;;;;;;0.00;0.00;;;;;;;23.24;60.12;102596.66;4962847;28;20041;-68
2022/08/10 08:30:19;;;;;;;0.00;0.00;;;;;;;23.15;59.32;102584.75;4962896;28;20035;-67
2022/08/10 08:32:48;;;;;;;0.00;0.00;;;;;;;23.45;59.79;102590.81;4958535;28;20427;-68
2022/08/10 08:35:17;;;;;;;0.00;0.00;;;;;;;23.58;58.25;102581.25;4962221;28;20038;-68
2022/08/10 08:37:45;;;;;;;0.15;0.00;;;;;;;23.81;57.70;102589.75;4958926;28;20093;-68
2022/08/10 08:40:13;;;;;;;0.00;0.00;;;;;;;23.93;57.92;102590.31;4953726;28;20479;-68
2022/08/10 08:42:57;;;;;;;0.00;0.00;;;;;;;24.08;57.87;102593.31;4964351;28;20094;-68
2022/08/10 08:46:05;;;;;;;0.00;0.00;;;;;;;24.25;55.01;102591.47;4960587;28;20031;-67
2022/08/10 08:49:04;;;;;;;0.00;0.00;;;;;;;24.35;54.64;102592.19;4958158;28;20045;-70
2022/08/10 08:51:46;;;;;;;0.00;0.00;;;;;;;24.46;55.89;102595.63;4955391;28;20035;-69
2022/08/10 08:54:17;;;;;;;0.00;0.00;;;;;;;24.41;53.96;102579.66;4955653;28;22533;-69
2022/08/10 08:56:57;;;;;;;0.00;0.00;;;;;;;24.49;55.76;102589.78;4963057;28;20383;-69
2022/08/10 08:59:50;;;;;;;0.00;0.00;;;;;;;24.58;53.39;102585.16;4963909;28;20027;-68
2022/08/10 09:02:51;;;;;;;0.00;0.00;;;;;;;24.82;50.25;102581.59;4964764;28;20030;-70
2022/08/10 09:05:29;;;;;;;0.00;0.00;;;;;;;24.84;51.66;102574.91;4954452;28;20027;-69
2022/08/10 09:08:13;;;;;;;0.00;0.00;;;;;;;24.84;50.80;102579.53;4964151;28;20034;-69
2022/08/10 09:10:51;;;;;;;0.03;0.03;;;;;;;24.92;51.31;102582.25;4962785;28;20030;-70
2022/08/10 09:13:39;;;;;;;0.00;0.00;;;;;;;24.97;51.77;102579.84;4958784;28;20030;-72
2022/08/10 09:16:19;;;;;;;0.00;0.00;;;;;;;25.28;51.36;102592.03;4960651;28;20208;-70
2022/08/10 09:18:52;;;;;;;0.00;0.00;;;;;;;25.37;51.75;102579.09;4956828;28;20022;-70
2022/08/10 09:21:44;;;;;;;0.00;0.00;;;;;;;25.29;49.85;102577.25;4957252;28;20035;-70
2022/08/10 09:24:15;;;;;;;0.00;0.00;;;;;;;25.44;53.56;102575.50;4959688;28;20426;-70
2022/08/10 09:26:40;;;;;;;0.00;0.00;;;;;;;25.60;49.72;102566.34;4958265;28;20050;-69
2022/08/10 09:29:08;;;;;;;0.00;0.00;;;;;;;25.47;50.61;102571.53;4965257;28;20155;-71
2022/08/10 09:31:43;;;;;;;0.00;0.00;;;;;;;25.67;51.11;102560.13;4968831;28;20418;-71
2022/08/10 09:34:19;;;;;;;0.00;0.00;;;;;;;25.77;49.45;102562.66;4967196;28;20027;-70
2022/08/10 09:37:03;;;;;;;0.00;0.00;;;;;;;25.86;51.48;102550.56;4958013;28;20027;-69
2022/08/10 09:39:38;;;;;;;0.00;0.00;;;;;;;25.88;51.68;102554.88;4960844;28;20023;-69
2022/08/10 09:42:24;;;;;;;0.00;0.00;;;;;;;26.15;52.03;102549.03;4963125;28;20034;-69
2022/08/10 09:45:09;;;;;;;0.00;0.00;;;;;;;26.37;51.34;102546.47;4966552;28;20033;-70
2022/08/10 09:47:53;;;;;;;0.00;0.00;;;;;;;26.50;49.61;102549.47;4960600;28;20026;-70
2022/08/10 09:50:50;;;;;;;0.00;0.00;;;;;;;26.70;51.41;102547.06;4961918;28;20022;-70
2022/08/10 09:53:23;;;;;;;0.00;0.00;;;;;;;26.91;46.41;102543.63;4962258;28;20082;-70
2022/08/10 09:56:08;;;;;;;0.00;0.00;;;;;;;26.99;45.14;102541.81;4963867;28;20023;-70
2022/08/10 09:58:39;;;;;;;0.00;0.00;;;;;;;27.05;46.69;102528.13;4956594;28;20428;-69
2022/08/10 10:01:17;;;;;;;0.00;0.00;;;;;;;27.17;47.18;102536.78;4964964;28;20091;-70
2022/08/10 10:04:15;;;;;;;0.00;0.00;;;;;;;27.37;44.87;102531.56;4952101;28;20058;-68
2022/08/10 10:06:59;;;;;;;0.00;0.00;;;;;;;27.52;44.39;102530.75;4962192;28;20370;-72
2022/08/10 10:10:05;;;;;;;0.00;0.00;;;;;;;27.84;43.10;102526.69;4963987;28;20027;-68
2022/08/10 10:12:52;;;;;;;0.00;0.00;;;;;;;28.03;45.15;102529.84;4976422;28;20051;-71
2022/08/10 10:15:26;;;;;;;0.00;0.00;;;;;;;28.31;44.50;102525.50;4958014;28;20093;-70
2022/08/10 10:18:10;;;;;;;0.00;0.00;;;;;;;28.39;41.10;102526.22;4964629;28;20039;-69
2022/08/10 10:21:00;;;;;;;0.00;0.00;;;;;;;28.06;41.69;102515.66;4961795;28;20029;-69
2022/08/10 10:23:47;;;;;;;0.00;0.00;;;;;;;28.35;42.71;102513.84;4957505;28;20460;-68
2022/08/10 10:26:38;;;;;;;0.00;0.00;;;;;;;28.44;40.10;102511.78;4963868;28;20485;-70
2022/08/10 10:29:42;;;;;;;0.00;0.00;;;;;;;28.91;38.86;102509.44;4965108;28;20043;-71
2022/08/10 10:32:16;;;;;;;0.00;0.00;;;;;;;28.83;41.42;102504.03;4955063;28;20051;-71
2022/08/10 10:35:22;;;;;;;0.00;0.00;;;;;;;28.44;39.81;102500.75;4961542;28;20059;-67
2022/08/10 10:37:50;;;;;;;0.00;0.00;;;;;;;28.68;41.97;102474.59;4965376;28;20043;-69
2022/08/10 10:40:17;;;;;;;0.00;0.00;;;;;;;29.26;40.15;102489.19;4963244;28;20057;-68
2022/08/10 10:42:49;;;;;;;0.00;0.00;;;;;;;29.40;40.14;102501.22;4958457;28;20113;-70
2022/08/10 10:45:44;;;;;;;0.00;0.00;;;;;;;29.62;37.92;102477.03;4960490;28;20031;-70
2022/08/10 10:48:27;;;;;;;0.00;0.00;;;;;;;29.46;35.66;102473.56;4965544;28;20482;-69
2022/08/10 10:51:11;;;;;;;0.00;0.00;;;;;;;29.41;36.69;102481.63;4964378;28;20046;-69
2022/08/10 10:53:46;;;;;;;0.00;0.00;;;;;;;29.31;36.56;102459.00;4960268;28;20038;-68
2022/08/10 10:56:34;;;;;;;0.00;0.00;;;;;;;29.32;36.80;102480.94;4964288;28;20076;-69
2022/08/10 10:59:14;;;;;;;0.00;0.00;;;;;;;29.76;36.53;102480.69;4966814;28;20463;-71
2022/08/10 11:02:08;;;;;;;0.00;0.00;;;;;;;30.05;35.98;102475.91;4963069;28;20446;-71
2022/08/10 11:04:57;;;;;;;0.00;0.00;;;;;;;30.25;34.11;102470.34;4956841;28;20026;-71
2022/08/10 11:08:02;;;;;;;0.00;0.00;;;;;;;30.18;34.91;102467.59;4961262;28;20324;-68
2022/08/10 11:10:35;;;;;;;0.00;0.00;;;;;;;30.35;34.43;102456.94;4967374;28;20034;-72
2022/08/10 11:13:11;;;;;;;;;;;;;;;29.98;35.67;102462.00;4963605;28;20035;-66
2022/08/10 11:15:42;;;;;;;0.00;0.00;;;;;;;30.12;34.23;102460.13;4965221;28;19956;-69
2022/08/10 11:18:19;;;;;;;0.00;0.00;;;;;;;30.38;34.46;102455.63;4965453;28;20108;-70
2022/08/10 11:20:57;;;;;;;0.00;0.00;;;;;;;30.93;36.55;102444.28;4958569;28;20069;-69
2022/08/10 11:23:42;;;;;;;0.00;0.00;;;;;;;31.10;33.79;102450.22;4960124;28;20379;-69
2022/08/10 11:26:17;;;;;;;0.00;0.00;;;;;;;30.99;34.25;102431.47;4962016;28;20586;-67
2022/08/10 11:28:47;;;;;;;0.00;0.00;;;;;;;31.39;34.59;102449.88;4966052;28;20467;-68
2022/08/10 11:31:21;;;;;;;0.10;0.00;;;;;;;31.44;33.59;102450.09;4964777;28;20069;-68
2022/08/10 11:33:50;;;;;;;0.00;0.00;;;;;;;31.54;34.18;102446.81;4958342;28;20027;-69
2022/08/10 11:36:46;;;;;;;0.00;0.00;;;;;;;31.56;36.89;102442.75;4965663;28;20042;-69
2022/08/10 11:39:27;;;;;;;0.00;0.00;;;;;;;31.97;33.55;102453.63;4962806;28;20034;-68
2022/08/10 11:41:57;;;;;;;0.00;0.00;;;;;;;32.37;33.57;102447.75;4959657;28;20090;-69
2022/08/10 11:44:48;;;;;;;0.00;0.00;;;;;;;32.12;34.03;102448.56;4952244;28;21517;-68
2022/08/10 11:47:22;;;;;;;0.00;0.00;;;;;;;31.82;33.91;102445.63;4957402;28;20563;-68
2022/08/10 11:50:10;;;;;;;0.00;0.00;;;;;;;31.67;34.17;102438.41;4961766;28;20183;-68